sensor_id;sensor_type;location;lat;lon;timestamp;P1;durP1;ratioP1;P2;durP2;ratioP2
1436;SDS011;712;51.026;13.792;2022-08-03T00:02:19;4.00;;;3.70;;
1436;SDS011;712;51.026;13.792;2022-08-03T00:04:45;4.40;;;4.10;;
1436;SDS011;712;51.026;13.792;2022-08-03T00:07:10;4.97;;;4.57;;
1436;SDS011;712;51.026;13.792;2022-08-03T00:09:35;5.10;;;4.80;;
1436;SDS011;712;51.026;13.792;2022-08-03T00:12:00;5.60;;;5.20;;
1436;SDS011;712;51.026;13.792;2022-08-03T00:14:26;5.43;;;5.03;;
1436;SDS011;712;51.026;13.792;2022-08-03T00:16:51;4.90;;;4.50;;
1436;SDS011;712;51.026;13.792;2022-08-03T00:19:16;5.45;;;5.05;;
1436;SDS011;712;51.026;13.792;2022-08-03T00:21:41;5.75;;;5.25;;
1436;SDS011;712;51.026;13.792;2022-08-03T00:24:06;5.40;;;5.00;;
1436;SDS011;712;51.026;13.792;2022-08-03T00:26:31;4.97;;;4.57;;
1436;SDS011;712;51.026;13.792;2022-08-03T00:28:57;5.17;;;4.77;;
1436;SDS011;712;51.026;13.792;2022-08-03T00:31:22;4.30;;;4.00;;
1436;SDS011;712;51.026;13.792;2022-08-03T00:33:47;4.20;;;3.90;;
1436;SDS011;712;51.026;13.792;2022-08-03T00:36:12;4.28;;;3.97;;
1436;SDS011;712;51.026;13.792;2022-08-03T00:38:37;4.63;;;4.32;;
1436;SDS011;712;51.026;13.792;2022-08-03T00:41:02;4.30;;;4.00;;
1436;SDS011;712;51.026;13.792;2022-08-03T00:43:27;4.50;;;4.20;;
1436;SDS011;712;51.026;13.792;2022-08-03T00:45:53;4.60;;;4.30;;
1436;SDS011;712;51.026;13.792;2022-08-03T00:48:18;4.43;;;4.13;;
1436;SDS011;712;51.026;13.792;2022-08-03T00:50:43;4.60;;;4.20;;
1436;SDS011;712;51.026;13.792;2022-08-03T00:53:10;4.35;;;4.05;;
1436;SDS011;712;51.026;13.792;2022-08-03T00:55:38;4.22;;;3.92;;
1436;SDS011;712;51.026;13.792;2022-08-03T00:58:03;4.57;;;4.27;;
1436;SDS011;712;51.026;13.792;2022-08-03T01:00:30;4.32;;;4.03;;
1436;SDS011;712;51.026;13.792;2022-08-03T01:02:56;4.50;;;4.20;;
1436;SDS011;712;51.026;13.792;2022-08-03T01:05:21;4.65;;;4.25;;
1436;SDS011;712;51.026;13.792;2022-08-03T01:08:01;4.73;;;4.43;;
1436;SDS011;712;51.026;13.792;2022-08-03T01:13:02;4.53;;;4.22;;
1436;SDS011;712;51.026;13.792;2022-08-03T01:15:37;5.00;;;4.50;;
1436;SDS011;712;51.026;13.792;2022-08-03T01:18:06;5.63;;;5.22;;
1436;SDS011;712;51.026;13.792;2022-08-03T01:20:34;5.60;;;5.20;;
1436;SDS011;712;51.026;13.792;2022-08-03T01:23:08;4.82;;;4.53;;
1436;SDS011;712;51.026;13.792;2022-08-03T01:30:46;4.80;;;4.50;;
1436;SDS011;712;51.026;13.792;2022-08-03T01:33:13;5.60;;;5.20;;
1436;SDS011;712;51.026;13.792;2022-08-03T01:35:43;5.90;;;5.50;;
1436;SDS011;712;51.026;13.792;2022-08-03T01:38:10;5.82;;;5.43;;
1436;SDS011;712;51.026;13.792;2022-08-03T01:40:35;5.85;;;5.45;;
1436;SDS011;712;51.026;13.792;2022-08-03T01:43:02;6.15;;;5.57;;
1436;SDS011;712;51.026;13.792;2022-08-03T01:45:28;5.60;;;5.20;;
1436;SDS011;712;51.026;13.792;2022-08-03T01:47:54;6.00;;;5.60;;
1436;SDS011;712;51.026;13.792;2022-08-03T01:50:21;6.30;;;5.70;;
1436;SDS011;712;51.026;13.792;2022-08-03T01:52:47;6.40;;;5.90;;
1436;SDS011;712;51.026;13.792;2022-08-03T01:55:15;5.80;;;5.40;;
1436;SDS011;712;51.026;13.792;2022-08-03T01:57:40;5.68;;;5.28;;
1436;SDS011;712;51.026;13.792;2022-08-03T02:00:07;6.10;;;5.60;;
1436;SDS011;712;51.026;13.792;2022-08-03T02:02:35;5.90;;;5.50;;
1436;SDS011;712;51.026;13.792;2022-08-03T02:05:02;6.50;;;6.00;;
1436;SDS011;712;51.026;13.792;2022-08-03T02:07:28;6.75;;;6.30;;
1436;SDS011;712;51.026;13.792;2022-08-03T02:09:54;6.13;;;5.63;;
1436;SDS011;712;51.026;13.792;2022-08-03T02:12:19;5.90;;;5.50;;
1436;SDS011;712;51.026;13.792;2022-08-03T02:14:46;6.50;;;6.00;;
1436;SDS011;712;51.026;13.792;2022-08-03T02:17:12;6.68;;;6.28;;
1436;SDS011;712;51.026;13.792;2022-08-03T02:19:38;6.30;;;5.80;;
1436;SDS011;712;51.026;13.792;2022-08-03T02:22:04;6.50;;;6.00;;
1436;SDS011;712;51.026;13.792;2022-08-03T02:24:32;6.40;;;5.90;;
1436;SDS011;712;51.026;13.792;2022-08-03T02:26:57;6.30;;;5.80;;
1436;SDS011;712;51.026;13.792;2022-08-03T02:29:24;6.70;;;6.20;;
1436;SDS011;712;51.026;13.792;2022-08-03T02:31:49;7.63;;;6.93;;
1436;SDS011;712;51.026;13.792;2022-08-03T02:34:16;7.10;;;6.60;;
1436;SDS011;712;51.026;13.792;2022-08-03T02:36:44;7.50;;;7.00;;
1436;SDS011;712;51.026;13.792;2022-08-03T02:39:10;7.20;;;6.63;;
1436;SDS011;712;51.026;13.792;2022-08-03T02:41:40;6.75;;;6.30;;
1436;SDS011;712;51.026;13.792;2022-08-03T02:44:07;7.40;;;6.80;;
1436;SDS011;712;51.026;13.792;2022-08-03T02:46:34;7.43;;;6.93;;
1436;SDS011;712;51.026;13.792;2022-08-03T02:49:01;7.00;;;6.50;;
1436;SDS011;712;51.026;13.792;2022-08-03T02:51:27;7.40;;;6.90;;
1436;SDS011;712;51.026;13.792;2022-08-03T02:53:53;7.90;;;7.30;;
1436;SDS011;712;51.026;13.792;2022-08-03T02:56:20;7.18;;;6.68;;
1436;SDS011;712;51.026;13.792;2022-08-03T02:58:46;7.13;;;6.63;;
1436;SDS011;712;51.026;13.792;2022-08-03T03:01:13;7.47;;;6.88;;
1436;SDS011;712;51.026;13.792;2022-08-03T03:03:39;7.20;;;6.60;;
1436;SDS011;712;51.026;13.792;2022-08-03T03:06:05;7.00;;;6.40;;
1436;SDS011;712;51.026;13.792;2022-08-03T03:08:30;7.05;;;6.45;;
1436;SDS011;712;51.026;13.792;2022-08-03T03:10:57;7.10;;;6.50;;
1436;SDS011;712;51.026;13.792;2022-08-03T03:13:23;6.97;;;6.47;;
1436;SDS011;712;51.026;13.792;2022-08-03T03:15:48;6.90;;;6.30;;
1436;SDS011;712;51.026;13.792;2022-08-03T03:18:14;6.40;;;6.00;;
1436;SDS011;712;51.026;13.792;2022-08-03T03:20:40;7.10;;;6.60;;
1436;SDS011;712;51.026;13.792;2022-08-03T03:23:06;7.55;;;7.05;;
1436;SDS011;712;51.026;13.792;2022-08-03T03:25:32;8.43;;;7.83;;
1436;SDS011;712;51.026;13.792;2022-08-03T03:27:58;7.60;;;7.00;;
1436;SDS011;712;51.026;13.792;2022-08-03T03:30:24;8.02;;;7.43;;
1436;SDS011;712;51.026;13.792;2022-08-03T03:32:49;7.70;;;7.10;;
1436;SDS011;712;51.026;13.792;2022-08-03T03:35:14;7.60;;;7.00;;
1436;SDS011;712;51.026;13.792;2022-08-03T03:37:40;8.53;;;7.93;;
1436;SDS011;712;51.026;13.792;2022-08-03T03:40:05;8.80;;;8.20;;
1436;SDS011;712;51.026;13.792;2022-08-03T03:42:32;7.40;;;6.90;;
1436;SDS011;712;51.026;13.792;2022-08-03T03:44:58;8.60;;;8.00;;
1436;SDS011;712;51.026;13.792;2022-08-03T03:47:23;7.30;;;6.80;;
1436;SDS011;712;51.026;13.792;2022-08-03T03:49:48;8.13;;;7.33;;
1436;SDS011;712;51.026;13.792;2022-08-03T03:52:14;7.83;;;7.23;;
1436;SDS011;712;51.026;13.792;2022-08-03T03:54:41;7.95;;;7.25;;
1436;SDS011;712;51.026;13.792;2022-08-03T03:57:06;9.25;;;8.55;;
1436;SDS011;712;51.026;13.792;2022-08-03T03:59:31;8.05;;;7.45;;
1436;SDS011;712;51.026;13.792;2022-08-03T04:01:57;8.10;;;7.50;;
1436;SDS011;712;51.026;13.792;2022-08-03T04:04:22;9.85;;;9.05;;
1436;SDS011;712;51.026;13.792;2022-08-03T04:07:06;7.88;;;7.30;;
1436;SDS011;712;51.026;13.792;2022-08-03T04:09:50;8.88;;;8.07;;
1436;SDS011;712;51.026;13.792;2022-08-03T04:12:34;8.40;;;7.80;;
1436;SDS011;712;51.026;13.792;2022-08-03T04:15:00;8.70;;;8.00;;
1436;SDS011;712;51.026;13.792;2022-08-03T04:17:27;8.80;;;7.90;;
1436;SDS011;712;51.026;13.792;2022-08-03T04:19:53;9.13;;;8.32;;
1436;SDS011;712;51.026;13.792;2022-08-03T04:22:21;9.40;;;8.60;;
1436;SDS011;712;51.026;13.792;2022-08-03T04:24:52;9.00;;;8.35;;
1436;SDS011;712;51.026;13.792;2022-08-03T04:27:23;9.27;;;8.43;;
1436;SDS011;712;51.026;13.792;2022-08-03T04:29:50;8.40;;;7.70;;
1436;SDS011;712;51.026;13.792;2022-08-03T04:32:16;8.82;;;8.13;;
1436;SDS011;712;51.026;13.792;2022-08-03T04:34:42;9.68;;;8.88;;
1436;SDS011;712;51.026;13.792;2022-08-03T04:37:10;7.80;;;7.20;;
1436;SDS011;712;51.026;13.792;2022-08-03T04:39:35;7.65;;;7.05;;
1436;SDS011;712;51.026;13.792;2022-08-03T04:42:03;7.60;;;7.00;;
1436;SDS011;712;51.026;13.792;2022-08-03T04:44:30;7.55;;;6.80;;
1436;SDS011;712;51.026;13.792;2022-08-03T04:46:59;7.97;;;7.17;;
1436;SDS011;712;51.026;13.792;2022-08-03T04:49:24;7.43;;;6.83;;
1436;SDS011;712;51.026;13.792;2022-08-03T04:51:50;7.27;;;6.57;;
1436;SDS011;712;51.026;13.792;2022-08-03T04:54:16;7.88;;;7.18;;
1436;SDS011;712;51.026;13.792;2022-08-03T04:56:42;6.60;;;6.10;;
1436;SDS011;712;51.026;13.792;2022-08-03T04:59:07;6.93;;;6.43;;
1436;SDS011;712;51.026;13.792;2022-08-03T05:01:32;5.97;;;5.47;;
1436;SDS011;712;51.026;13.792;2022-08-03T05:03:58;6.20;;;5.80;;
1436;SDS011;712;51.026;13.792;2022-08-03T05:06:23;6.20;;;5.60;;
1436;SDS011;712;51.026;13.792;2022-08-03T05:08:48;4.70;;;4.37;;
1436;SDS011;712;51.026;13.792;2022-08-03T05:11:14;4.80;;;4.40;;
1436;SDS011;712;51.026;13.792;2022-08-03T05:13:39;5.00;;;4.65;;
1436;SDS011;712;51.026;13.792;2022-08-03T05:16:04;5.05;;;4.65;;
1436;SDS011;712;51.026;13.792;2022-08-03T05:18:29;5.37;;;4.87;;
1436;SDS011;712;51.026;13.792;2022-08-03T05:20:56;4.80;;;4.40;;
1436;SDS011;712;51.026;13.792;2022-08-03T05:23:21;4.68;;;4.38;;
1436;SDS011;712;51.026;13.792;2022-08-03T05:25:46;5.80;;;4.70;;
1436;SDS011;712;51.026;13.792;2022-08-03T05:28:11;5.00;;;4.63;;
1436;SDS011;712;51.026;13.792;2022-08-03T05:30:36;4.60;;;4.30;;
1436;SDS011;712;51.026;13.792;2022-08-03T05:33:02;6.22;;;4.68;;
1436;SDS011;712;51.026;13.792;2022-08-03T05:35:27;4.60;;;4.20;;
1436;SDS011;712;51.026;13.792;2022-08-03T05:37:53;4.70;;;4.40;;
1436;SDS011;712;51.026;13.792;2022-08-03T05:40:18;5.00;;;4.60;;
1436;SDS011;712;51.026;13.792;2022-08-03T05:42:43;4.70;;;4.40;;
1436;SDS011;712;51.026;13.792;2022-08-03T05:45:09;4.72;;;4.32;;
1436;SDS011;712;51.026;13.792;2022-08-03T05:47:42;5.30;;;4.90;;
1436;SDS011;712;51.026;13.792;2022-08-03T05:50:08;5.20;;;4.90;;
1436;SDS011;712;51.026;13.792;2022-08-03T05:52:33;5.23;;;4.63;;
1436;SDS011;712;51.026;13.792;2022-08-03T05:54:58;5.47;;;5.07;;
1436;SDS011;712;51.026;13.792;2022-08-03T05:57:24;5.80;;;5.40;;
1436;SDS011;712;51.026;13.792;2022-08-03T05:59:49;5.93;;;5.53;;
1436;SDS011;712;51.026;13.792;2022-08-03T06:02:14;6.88;;;6.30;;
1436;SDS011;712;51.026;13.792;2022-08-03T06:04:39;6.63;;;6.13;;
1436;SDS011;712;51.026;13.792;2022-08-03T06:07:05;6.82;;;6.25;;
1436;SDS011;712;51.026;13.792;2022-08-03T06:09:30;7.00;;;6.50;;
1436;SDS011;712;51.026;13.792;2022-08-03T06:11:55;6.35;;;5.75;;
1436;SDS011;712;51.026;13.792;2022-08-03T06:14:20;6.17;;;5.77;;
1436;SDS011;712;51.026;13.792;2022-08-03T06:16:45;7.20;;;6.70;;
1436;SDS011;712;51.026;13.792;2022-08-03T06:19:10;7.25;;;6.57;;
1436;SDS011;712;51.026;13.792;2022-08-03T06:21:35;7.20;;;6.70;;
1436;SDS011;712;51.026;13.792;2022-08-03T06:24:00;7.53;;;6.93;;
1436;SDS011;712;51.026;13.792;2022-08-03T06:26:26;6.57;;;5.97;;
1436;SDS011;712;51.026;13.792;2022-08-03T06:28:51;6.80;;;6.30;;
1436;SDS011;712;51.026;13.792;2022-08-03T06:31:17;6.40;;;5.90;;
1436;SDS011;712;51.026;13.792;2022-08-03T06:33:42;6.53;;;6.13;;
1436;SDS011;712;51.026;13.792;2022-08-03T06:36:07;6.50;;;6.00;;
1436;SDS011;712;51.026;13.792;2022-08-03T06:38:32;5.90;;;5.40;;
1436;SDS011;712;51.026;13.792;2022-08-03T06:40:57;6.72;;;6.18;;
1436;SDS011;712;51.026;13.792;2022-08-03T06:43:22;6.75;;;6.13;;
1436;SDS011;712;51.026;13.792;2022-08-03T06:45:47;6.50;;;5.97;;
1436;SDS011;712;51.026;13.792;2022-08-03T06:48:12;6.40;;;5.90;;
1436;SDS011;712;51.026;13.792;2022-08-03T06:50:39;6.10;;;5.70;;
1436;SDS011;712;51.026;13.792;2022-08-03T06:53:04;5.90;;;5.50;;
1436;SDS011;712;51.026;13.792;2022-08-03T06:55:30;5.70;;;5.20;;
1436;SDS011;712;51.026;13.792;2022-08-03T06:57:56;6.07;;;5.57;;
1436;SDS011;712;51.026;13.792;2022-08-03T07:00:22;5.38;;;5.03;;
1436;SDS011;712;51.026;13.792;2022-08-03T07:02:47;5.47;;;5.07;;
1436;SDS011;712;51.026;13.792;2022-08-03T07:05:12;5.40;;;5.00;;
1436;SDS011;712;51.026;13.792;2022-08-03T07:07:37;5.10;;;4.77;;
1436;SDS011;712;51.026;13.792;2022-08-03T07:10:03;5.20;;;4.90;;
1436;SDS011;712;51.026;13.792;2022-08-03T07:12:29;4.60;;;4.30;;
1436;SDS011;712;51.026;13.792;2022-08-03T07:14:55;4.50;;;4.20;;
1436;SDS011;712;51.026;13.792;2022-08-03T07:17:20;4.55;;;4.25;;
1436;SDS011;712;51.026;13.792;2022-08-03T07:19:45;4.53;;;4.15;;
1436;SDS011;712;51.026;13.792;2022-08-03T07:22:11;4.88;;;4.57;;
1436;SDS011;712;51.026;13.792;2022-08-03T07:24:36;4.50;;;4.20;;
1436;SDS011;712;51.026;13.792;2022-08-03T07:27:01;5.00;;;4.50;;
1436;SDS011;712;51.026;13.792;2022-08-03T07:29:26;4.93;;;4.60;;
1436;SDS011;712;51.026;13.792;2022-08-03T07:31:51;4.60;;;4.30;;
1436;SDS011;712;51.026;13.792;2022-08-03T07:34:17;4.70;;;4.40;;
1436;SDS011;712;51.026;13.792;2022-08-03T07:36:42;4.37;;;4.07;;
1436;SDS011;712;51.026;13.792;2022-08-03T07:39:07;4.43;;;4.13;;
1436;SDS011;712;51.026;13.792;2022-08-03T07:41:32;4.15;;;3.85;;
1436;SDS011;712;51.026;13.792;2022-08-03T07:43:57;4.20;;;3.90;;
1436;SDS011;712;51.026;13.792;2022-08-03T07:46:22;4.70;;;4.30;;
1436;SDS011;712;51.026;13.792;2022-08-03T07:48:47;4.28;;;3.88;;
1436;SDS011;712;51.026;13.792;2022-08-03T07:51:13;4.40;;;4.10;;
1436;SDS011;712;51.026;13.792;2022-08-03T07:53:38;4.50;;;4.17;;
1436;SDS011;712;51.026;13.792;2022-08-03T07:56:03;4.00;;;3.80;;
1436;SDS011;712;51.026;13.792;2022-08-03T07:58:28;4.80;;;4.50;;
1436;SDS011;712;51.026;13.792;2022-08-03T08:00:53;4.60;;;4.30;;
1436;SDS011;712;51.026;13.792;2022-08-03T08:03:18;4.40;;;4.10;;
1436;SDS011;712;51.026;13.792;2022-08-03T08:05:45;4.65;;;4.35;;
1436;SDS011;712;51.026;13.792;2022-08-03T08:08:10;4.27;;;3.87;;
1436;SDS011;712;51.026;13.792;2022-08-03T08:10:36;4.15;;;3.85;;
1436;SDS011;712;51.026;13.792;2022-08-03T08:13:01;4.10;;;3.80;;
1436;SDS011;712;51.026;13.792;2022-08-03T08:15:27;4.28;;;3.88;;
1436;SDS011;712;51.026;13.792;2022-08-03T08:17:53;4.10;;;3.80;;
1436;SDS011;712;51.026;13.792;2022-08-03T08:20:20;4.45;;;4.05;;
1436;SDS011;712;51.026;13.792;2022-08-03T08:22:45;4.30;;;4.00;;
1436;SDS011;712;51.026;13.792;2022-08-03T08:25:10;4.07;;;3.77;;
1436;SDS011;712;51.026;13.792;2022-08-03T08:27:39;3.80;;;3.50;;
1436;SDS011;712;51.026;13.792;2022-08-03T08:30:05;3.40;;;3.20;;
1436;SDS011;712;51.026;13.792;2022-08-03T08:32:30;3.50;;;3.30;;
1436;SDS011;712;51.026;13.792;2022-08-03T08:34:55;3.80;;;3.50;;
1436;SDS011;712;51.026;13.792;2022-08-03T08:37:21;3.25;;;3.05;;
1436;SDS011;712;51.026;13.792;2022-08-03T08:39:46;3.50;;;3.30;;
1436;SDS011;712;51.026;13.792;2022-08-03T08:42:11;3.33;;;3.13;;
1436;SDS011;712;51.026;13.792;2022-08-03T08:44:37;3.50;;;3.30;;
1436;SDS011;712;51.026;13.792;2022-08-03T08:47:02;3.88;;;3.58;;
1436;SDS011;712;51.026;13.792;2022-08-03T08:49:28;3.65;;;3.35;;
1436;SDS011;712;51.026;13.792;2022-08-03T08:51:53;3.40;;;3.20;;
1436;SDS011;712;51.026;13.792;2022-08-03T08:54:19;3.45;;;3.25;;
1436;SDS011;712;51.026;13.792;2022-08-03T08:56:45;3.60;;;3.30;;
1436;SDS011;712;51.026;13.792;2022-08-03T08:59:10;4.20;;;3.80;;
1436;SDS011;712;51.026;13.792;2022-08-03T09:01:36;4.00;;;3.70;;
1436;SDS011;712;51.026;13.792;2022-08-03T09:04:01;3.80;;;3.50;;
1436;SDS011;712;51.026;13.792;2022-08-03T09:06:29;3.88;;;3.58;;
1436;SDS011;712;51.026;13.792;2022-08-03T09:08:55;4.17;;;3.60;;
1436;SDS011;712;51.026;13.792;2022-08-03T09:11:21;3.40;;;3.20;;
1436;SDS011;712;51.026;13.792;2022-08-03T09:13:47;3.60;;;3.40;;
1436;SDS011;712;51.026;13.792;2022-08-03T09:16:19;3.87;;;3.57;;
1436;SDS011;712;51.026;13.792;2022-08-03T09:18:46;3.60;;;3.40;;
1436;SDS011;712;51.026;13.792;2022-08-03T09:23:43;3.50;;;3.30;;
1436;SDS011;712;51.026;13.792;2022-08-03T09:26:09;3.70;;;3.40;;
1436;SDS011;712;51.026;13.792;2022-08-03T09:28:34;3.60;;;3.30;;
1436;SDS011;712;51.026;13.792;2022-08-03T09:30:59;3.30;;;3.10;;
1436;SDS011;712;51.026;13.792;2022-08-03T09:33:24;3.30;;;3.10;;
1436;SDS011;712;51.026;13.792;2022-08-03T09:35:50;3.50;;;3.20;;
1436;SDS011;712;51.026;13.792;2022-08-03T09:40:40;3.60;;;3.30;;
1436;SDS011;712;51.026;13.792;2022-08-03T09:43:06;3.40;;;3.20;;
1436;SDS011;712;51.026;13.792;2022-08-03T09:45:35;3.20;;;3.00;;
1436;SDS011;712;51.026;13.792;2022-08-03T09:50:47;3.10;;;2.90;;
1436;SDS011;712;51.026;13.792;2022-08-03T09:53:12;3.22;;;3.03;;
1436;SDS011;712;51.026;13.792;2022-08-03T09:55:37;3.40;;;3.10;;
1436;SDS011;712;51.026;13.792;2022-08-03T09:58:13;3.40;;;3.20;;
1436;SDS011;712;51.026;13.792;2022-08-03T10:03:23;3.33;;;3.10;;
1436;SDS011;712;51.026;13.792;2022-08-03T10:05:49;3.40;;;3.20;;
1436;SDS011;712;51.026;13.792;2022-08-03T10:08:15;3.53;;;3.30;;
1436;SDS011;712;51.026;13.792;2022-08-03T10:10:41;3.38;;;3.17;;
1436;SDS011;712;51.026;13.792;2022-08-03T10:13:07;3.40;;;3.20;;
1436;SDS011;712;51.026;13.792;2022-08-03T10:15:32;3.50;;;3.20;;
1436;SDS011;712;51.026;13.792;2022-08-03T10:17:57;3.40;;;3.20;;
1436;SDS011;712;51.026;13.792;2022-08-03T10:20:22;3.42;;;3.22;;
1436;SDS011;712;51.026;13.792;2022-08-03T10:22:48;3.63;;;3.43;;
1436;SDS011;712;51.026;13.792;2022-08-03T10:25:13;3.73;;;3.43;;
1436;SDS011;712;51.026;13.792;2022-08-03T10:27:40;3.70;;;3.40;;
1436;SDS011;712;51.026;13.792;2022-08-03T10:30:09;3.50;;;3.30;;
1436;SDS011;712;51.026;13.792;2022-08-03T10:35:04;3.50;;;3.30;;
1436;SDS011;712;51.026;13.792;2022-08-03T10:37:30;3.20;;;3.00;;
1436;SDS011;712;51.026;13.792;2022-08-03T10:39:56;3.38;;;3.17;;
1436;SDS011;712;51.026;13.792;2022-08-03T10:42:23;3.67;;;3.38;;
1436;SDS011;712;51.026;13.792;2022-08-03T10:44:49;3.40;;;3.10;;
1436;SDS011;712;51.026;13.792;2022-08-03T10:47:16;3.50;;;3.30;;
1436;SDS011;712;51.026;13.792;2022-08-03T10:49:42;3.90;;;3.60;;
1436;SDS011;712;51.026;13.792;2022-08-03T10:52:07;4.07;;;3.67;;
1436;SDS011;712;51.026;13.792;2022-08-03T10:57:01;3.58;;;3.38;;
1436;SDS011;712;51.026;13.792;2022-08-03T11:02:10;3.10;;;2.90;;
1436;SDS011;712;51.026;13.792;2022-08-03T11:04:36;3.40;;;3.20;;
1436;SDS011;712;51.026;13.792;2022-08-03T11:07:17;3.70;;;3.50;;
1436;SDS011;712;51.026;13.792;2022-08-03T11:09:43;3.25;;;3.05;;
1436;SDS011;712;51.026;13.792;2022-08-03T11:12:25;3.50;;;3.20;;
1436;SDS011;712;51.026;13.792;2022-08-03T11:14:51;3.47;;;3.28;;
1436;SDS011;712;51.026;13.792;2022-08-03T11:17:16;3.58;;;3.20;;
1436;SDS011;712;51.026;13.792;2022-08-03T11:19:43;3.90;;;3.60;;
1436;SDS011;712;51.026;13.792;2022-08-03T11:22:08;3.40;;;3.20;;
1436;SDS011;712;51.026;13.792;2022-08-03T11:35:14;3.30;;;3.10;;
1436;SDS011;712;51.026;13.792;2022-08-03T11:40:46;3.33;;;3.13;;
1436;SDS011;712;51.026;13.792;2022-08-03T11:48:27;3.20;;;3.00;;
1436;SDS011;712;51.026;13.792;2022-08-03T11:50:52;3.20;;;3.00;;
1436;SDS011;712;51.026;13.792;2022-08-03T11:53:17;3.40;;;3.20;;
1436;SDS011;712;51.026;13.792;2022-08-03T11:55:47;3.20;;;3.00;;
1436;SDS011;712;51.026;13.792;2022-08-03T11:58:19;3.50;;;3.20;;
1436;SDS011;712;51.026;13.792;2022-08-03T12:00:45;2.97;;;2.78;;
1436;SDS011;712;51.026;13.792;2022-08-03T12:03:11;3.27;;;3.07;;
1436;SDS011;712;51.026;13.792;2022-08-03T12:05:38;3.20;;;3.00;;
1436;SDS011;712;51.026;13.792;2022-08-03T12:08:04;3.10;;;2.90;;
1436;SDS011;712;51.026;13.792;2022-08-03T12:10:29;3.27;;;3.07;;
1436;SDS011;712;51.026;13.792;2022-08-03T12:12:55;3.70;;;3.40;;
1436;SDS011;712;51.026;13.792;2022-08-03T12:15:28;3.20;;;3.00;;
1436;SDS011;712;51.026;13.792;2022-08-03T12:17:53;3.17;;;2.97;;
1436;SDS011;712;51.026;13.792;2022-08-03T12:20:20;3.20;;;3.00;;
1436;SDS011;712;51.026;13.792;2022-08-03T12:22:46;3.50;;;3.30;;
1436;SDS011;712;51.026;13.792;2022-08-03T12:25:19;3.43;;;3.23;;
1436;SDS011;712;51.026;13.792;2022-08-03T12:27:44;3.10;;;2.90;;
1436;SDS011;712;51.026;13.792;2022-08-03T12:30:09;3.28;;;3.08;;
1436;SDS011;712;51.026;13.792;2022-08-03T12:32:35;3.20;;;3.00;;
1436;SDS011;712;51.026;13.792;2022-08-03T12:35:00;3.40;;;3.20;;
1436;SDS011;712;51.026;13.792;2022-08-03T12:37:28;3.30;;;3.10;;
1436;SDS011;712;51.026;13.792;2022-08-03T12:39:54;3.50;;;3.30;;
1436;SDS011;712;51.026;13.792;2022-08-03T12:42:19;3.10;;;2.90;;
1436;SDS011;712;51.026;13.792;2022-08-03T12:44:45;3.50;;;3.20;;
1436;SDS011;712;51.026;13.792;2022-08-03T12:47:10;3.50;;;3.20;;
1436;SDS011;712;51.026;13.792;2022-08-03T12:49:45;4.03;;;3.60;;
1436;SDS011;712;51.026;13.792;2022-08-03T12:52:10;3.22;;;3.03;;
1436;SDS011;712;51.026;13.792;2022-08-03T12:54:36;3.23;;;3.00;;
1436;SDS011;712;51.026;13.792;2022-08-03T12:59:27;3.20;;;3.00;;
1436;SDS011;712;51.026;13.792;2022-08-03T13:01:53;3.40;;;3.10;;
1436;SDS011;712;51.026;13.792;2022-08-03T13:04:25;3.17;;;2.97;;
1436;SDS011;712;51.026;13.792;2022-08-03T13:06:59;3.50;;;3.30;;
1436;SDS011;712;51.026;13.792;2022-08-03T13:09:24;3.58;;;3.38;;
1436;SDS011;712;51.026;13.792;2022-08-03T13:12:08;3.30;;;3.10;;
1436;SDS011;712;51.026;13.792;2022-08-03T13:14:34;3.20;;;3.00;;
1436;SDS011;712;51.026;13.792;2022-08-03T13:16:59;3.03;;;2.87;;
1436;SDS011;712;51.026;13.792;2022-08-03T13:19:24;3.30;;;3.10;;
1436;SDS011;712;51.026;13.792;2022-08-03T13:21:49;3.00;;;2.80;;
1436;SDS011;712;51.026;13.792;2022-08-03T13:24:14;2.87;;;2.67;;
1436;SDS011;712;51.026;13.792;2022-08-03T13:26:39;3.70;;;2.70;;
1436;SDS011;712;51.026;13.792;2022-08-03T13:29:05;3.10;;;2.90;;
1436;SDS011;712;51.026;13.792;2022-08-03T13:31:30;3.20;;;3.00;;
1436;SDS011;712;51.026;13.792;2022-08-03T13:33:55;3.10;;;2.80;;
1436;SDS011;712;51.026;13.792;2022-08-03T13:36:20;3.50;;;2.90;;
1436;SDS011;712;51.026;13.792;2022-08-03T13:38:45;3.10;;;2.90;;
1436;SDS011;712;51.026;13.792;2022-08-03T13:41:10;3.37;;;3.07;;
1436;SDS011;712;51.026;13.792;2022-08-03T13:43:35;3.20;;;3.00;;
1436;SDS011;712;51.026;13.792;2022-08-03T13:46:01;3.30;;;3.00;;
1436;SDS011;712;51.026;13.792;2022-08-03T13:48:26;3.40;;;3.20;;
1436;SDS011;712;51.026;13.792;2022-08-03T13:50:51;2.90;;;2.80;;
1436;SDS011;712;51.026;13.792;2022-08-03T13:53:16;3.13;;;2.83;;
1436;SDS011;712;51.026;13.792;2022-08-03T13:55:41;3.33;;;3.13;;
1436;SDS011;712;51.026;13.792;2022-08-03T13:58:06;3.10;;;2.90;;
1436;SDS011;712;51.026;13.792;2022-08-03T14:00:36;3.05;;;2.85;;
1436;SDS011;712;51.026;13.792;2022-08-03T14:03:01;3.30;;;3.10;;
1436;SDS011;712;51.026;13.792;2022-08-03T14:05:26;3.20;;;3.00;;
1436;SDS011;712;51.026;13.792;2022-08-03T14:07:51;3.13;;;2.92;;
1436;SDS011;712;51.026;13.792;2022-08-03T14:10:17;3.78;;;3.13;;
1436;SDS011;712;51.026;13.792;2022-08-03T14:12:43;3.17;;;2.90;;
1436;SDS011;712;51.026;13.792;2022-08-03T14:15:08;3.50;;;3.30;;
1436;SDS011;712;51.026;13.792;2022-08-03T14:17:34;3.00;;;2.90;;
1436;SDS011;712;51.026;13.792;2022-08-03T14:19:59;3.27;;;3.07;;
1436;SDS011;712;51.026;13.792;2022-08-03T14:22:24;3.28;;;2.97;;
1436;SDS011;712;51.026;13.792;2022-08-03T14:24:49;3.00;;;2.80;;
1436;SDS011;712;51.026;13.792;2022-08-03T14:27:14;3.90;;;3.20;;
1436;SDS011;712;51.026;13.792;2022-08-03T14:29:40;3.08;;;2.88;;
1436;SDS011;712;51.026;13.792;2022-08-03T14:32:05;3.35;;;2.83;;
1436;SDS011;712;51.026;13.792;2022-08-03T14:34:30;3.20;;;2.90;;
1436;SDS011;712;51.026;13.792;2022-08-03T14:36:55;2.80;;;2.60;;
1436;SDS011;712;51.026;13.792;2022-08-03T14:39:20;2.72;;;2.63;;
1436;SDS011;712;51.026;13.792;2022-08-03T14:41:45;2.72;;;2.60;;
1436;SDS011;712;51.026;13.792;2022-08-03T14:44:11;2.90;;;2.70;;
1436;SDS011;712;51.026;13.792;2022-08-03T14:46:36;3.20;;;3.00;;
1436;SDS011;712;51.026;13.792;2022-08-03T14:49:01;3.10;;;2.80;;
1436;SDS011;712;51.026;13.792;2022-08-03T14:51:26;2.80;;;2.60;;
1436;SDS011;712;51.026;13.792;2022-08-03T14:53:53;2.90;;;2.70;;
1436;SDS011;712;51.026;13.792;2022-08-03T14:56:18;3.08;;;2.80;;
1436;SDS011;712;51.026;13.792;2022-08-03T14:58:44;2.80;;;2.60;;
1436;SDS011;712;51.026;13.792;2022-08-03T15:01:09;3.13;;;2.83;;
1436;SDS011;712;51.026;13.792;2022-08-03T15:03:34;2.90;;;2.70;;
1436;SDS011;712;51.026;13.792;2022-08-03T15:05:59;3.00;;;2.80;;
1436;SDS011;712;51.026;13.792;2022-08-03T15:08:24;3.10;;;2.90;;
1436;SDS011;712;51.026;13.792;2022-08-03T15:10:50;3.03;;;2.83;;
1436;SDS011;712;51.026;13.792;2022-08-03T15:13:16;2.90;;;2.70;;
1436;SDS011;712;51.026;13.792;2022-08-03T15:15:41;3.40;;;3.20;;
1436;SDS011;712;51.026;13.792;2022-08-03T15:18:06;2.97;;;2.70;;
1436;SDS011;712;51.026;13.792;2022-08-03T15:20:32;2.50;;;2.30;;
1436;SDS011;712;51.026;13.792;2022-08-03T15:22:57;3.00;;;2.80;;
1436;SDS011;712;51.026;13.792;2022-08-03T15:25:22;2.90;;;2.67;;
1436;SDS011;712;51.026;13.792;2022-08-03T15:27:47;3.10;;;2.90;;
1436;SDS011;712;51.026;13.792;2022-08-03T15:30:12;2.83;;;2.63;;
1436;SDS011;712;51.026;13.792;2022-08-03T15:32:37;2.47;;;2.37;;
1436;SDS011;712;51.026;13.792;2022-08-03T15:35:03;2.90;;;2.70;;
1436;SDS011;712;51.026;13.792;2022-08-03T15:37:28;2.80;;;2.60;;
1436;SDS011;712;51.026;13.792;2022-08-03T15:39:53;3.22;;;2.92;;
1436;SDS011;712;51.026;13.792;2022-08-03T15:42:19;2.70;;;2.60;;
1436;SDS011;712;51.026;13.792;2022-08-03T15:44:44;3.00;;;2.80;;
1436;SDS011;712;51.026;13.792;2022-08-03T15:47:09;2.95;;;2.72;;
1436;SDS011;712;51.026;13.792;2022-08-03T15:49:34;2.90;;;2.70;;
1436;SDS011;712;51.026;13.792;2022-08-03T15:51:59;3.50;;;3.30;;
1436;SDS011;712;51.026;13.792;2022-08-03T15:54:25;3.20;;;2.80;;
1436;SDS011;712;51.026;13.792;2022-08-03T15:56:50;3.10;;;2.90;;